createdAt,value
2022-09-04T00:00:20.908Z,14.55
2022-09-04T00:03:22.546Z,14.95
2022-09-04T00:06:00.814Z,14.58
2022-09-04T00:09:07.154Z,13.80
2022-09-04T00:12:10.010Z,14.45
2022-09-04T00:15:05.955Z,13.83
2022-09-04T00:17:54.180Z,14.10
2022-09-04T00:20:43.162Z,13.80
2022-09-04T00:23:23.720Z,13.72
2022-09-04T00:26:37.036Z,13.30
2022-09-04T00:29:17.850Z,13.80
2022-09-04T00:31:58.541Z,13.53
2022-09-04T00:35:03.418Z,12.70
2022-09-04T00:40:31.550Z,15.40
2022-09-04T00:43:42.600Z,14.38
2022-09-04T00:46:44.366Z,14.13
2022-09-04T00:49:47.758Z,14.65
2022-09-04T00:52:44.529Z,14.95
2022-09-04T00:56:03.978Z,13.32
2022-09-04T00:58:52.633Z,15.03
2022-09-04T01:01:29.141Z,14.25
2022-09-04T01:04:35.470Z,14.07
2022-09-04T01:07:25.413Z,12.82
2022-09-04T01:10:06.740Z,12.58
2022-09-04T01:12:56.536Z,13.58
2022-09-04T01:15:52.665Z,13.38
2022-09-04T01:18:54.219Z,12.10
2022-09-04T01:22:03.346Z,12.75
2022-09-04T01:25:06.029Z,12.50
2022-09-04T01:27:59.098Z,12.03
2022-09-04T01:30:36.485Z,13.00
2022-09-04T01:33:33.114Z,11.25
2022-09-04T01:36:46.764Z,11.53
2022-09-04T01:39:21.733Z,15.30
2022-09-04T01:42:18.548Z,12.90
2022-09-04T01:44:52.002Z,14.20
2022-09-04T01:47:36.001Z,14.93
2022-09-04T01:50:25.985Z,15.83
2022-09-04T01:53:15.190Z,12.70
2022-09-04T01:55:56.226Z,11.83
2022-09-04T01:59:01.352Z,12.63
2022-09-04T02:02:00.423Z,12.43
2022-09-04T02:04:39.388Z,11.05
2022-09-04T02:07:33.983Z,14.43
2022-09-04T02:10:35.730Z,14.28
2022-09-04T02:14:09.360Z,14.68
2022-09-04T02:17:15.238Z,12.60
2022-09-04T02:20:06.025Z,12.05
2022-09-04T02:22:46.374Z,12.50
2022-09-04T02:25:54.288Z,11.85
2022-09-04T02:29:10.687Z,11.22
2022-09-04T02:32:07.017Z,10.00
2022-09-04T02:34:52.918Z,11.25
2022-09-04T02:37:53.038Z,9.80
2022-09-04T02:40:45.575Z,9.80
2022-09-04T02:43:41.300Z,10.18
2022-09-04T02:46:26.419Z,9.85
2022-09-04T02:52:12.285Z,10.72
2022-09-04T02:57:47.698Z,14.20
2022-09-04T03:00:23.123Z,13.83
2022-09-04T03:03:13.894Z,12.82
2022-09-04T03:06:09.404Z,12.75
2022-09-04T03:08:54.177Z,16.27
2022-09-04T03:11:37.192Z,10.95
2022-09-04T03:14:26.162Z,11.50
2022-09-04T03:17:19.241Z,12.40
2022-09-04T03:19:57.429Z,14.90
2022-09-04T03:22:50.690Z,15.08
2022-09-04T03:25:46.818Z,14.63
2022-09-04T03:28:32.295Z,10.80
2022-09-04T03:31:12.918Z,12.53
2022-09-04T03:33:51.073Z,11.95
2022-09-04T03:36:39.631Z,12.47
2022-09-04T03:39:26.066Z,13.98
2022-09-04T03:42:09.781Z,13.18
2022-09-04T03:45:09.281Z,17.55
2022-09-04T03:48:17.973Z,13.05
2022-09-04T03:51:04.877Z,12.28
2022-09-04T03:53:45.464Z,12.80
2022-09-04T03:56:32.111Z,12.15
2022-09-04T03:59:12.552Z,14.28
2022-09-04T04:02:20.060Z,13.40
2022-09-04T04:05:26.725Z,12.07
2022-09-04T04:08:31.963Z,11.50
2022-09-04T04:11:32.411Z,10.78
2022-09-04T04:14:16.956Z,11.53
2022-09-04T04:17:01.827Z,13.32
2022-09-04T04:20:07.198Z,13.60
2022-09-04T04:23:18.256Z,11.30
2022-09-04T04:26:11.557Z,11.83
2022-09-04T04:29:10.418Z,10.23
2022-09-04T04:32:14.141Z,11.70
2022-09-04T04:35:03.927Z,11.30
2022-09-04T04:38:09.761Z,10.10
2022-09-04T04:41:25.345Z,10.55
2022-09-04T04:44:09.046Z,10.23
2022-09-04T04:47:10.755Z,9.17
2022-09-04T04:50:16.607Z,9.78
2022-09-04T04:53:04.248Z,9.10
2022-09-04T04:56:11.662Z,8.85
2022-09-04T04:59:24.033Z,8.55
2022-09-04T05:02:23.724Z,7.60
2022-09-04T05:05:27.869Z,8.03
2022-09-04T05:08:10.699Z,8.30
2022-09-04T05:11:16.645Z,8.80
2022-09-04T05:14:43.103Z,7.22
2022-09-04T05:17:42.081Z,6.72
2022-09-04T05:20:42.310Z,7.00
2022-09-04T05:23:19.957Z,5.97
2022-09-04T05:26:33.599Z,5.90
2022-09-04T05:29:51.281Z,6.70
2022-09-04T05:33:00.424Z,5.65
2022-09-04T05:35:48.013Z,5.25
2022-09-04T05:39:00.262Z,6.50
2022-09-04T05:42:06.276Z,6.33
2022-09-04T05:45:07.164Z,7.25
2022-09-04T05:48:15.567Z,6.50
2022-09-04T05:51:28.095Z,6.12
2022-09-04T05:54:31.479Z,6.50
2022-09-04T05:57:19.023Z,6.50
2022-09-04T05:59:57.554Z,6.37
2022-09-04T06:03:06.829Z,5.58
2022-09-04T06:06:06.584Z,4.33
2022-09-04T06:09:17.471Z,4.22
2022-09-04T06:12:36.635Z,4.40
2022-09-04T06:15:54.475Z,4.20
2022-09-04T06:18:55.638Z,3.60
2022-09-04T06:21:54.425Z,6.03
2022-09-04T06:24:50.146Z,2.72
2022-09-04T06:28:17.416Z,2.75
2022-09-04T06:34:13.985Z,2.40
2022-09-04T06:37:06.662Z,2.45
2022-09-04T06:40:05.580Z,3.30
2022-09-04T06:43:07.209Z,2.70
2022-09-04T06:46:02.598Z,2.90
2022-09-04T06:49:02.804Z,2.90
2022-09-04T06:51:59.645Z,3.80
2022-09-04T06:54:53.836Z,4.08
2022-09-04T06:57:35.655Z,3.55
2022-09-04T07:00:10.991Z,4.00
2022-09-04T07:03:20.111Z,4.35
2022-09-04T07:06:06.207Z,3.60
2022-09-04T07:09:04.077Z,4.60
2022-09-04T07:11:59.896Z,3.75
2022-09-04T07:14:50.188Z,3.42
2022-09-04T07:17:41.840Z,3.47
2022-09-04T07:20:34.974Z,3.30
2022-09-04T07:23:16.148Z,2.98
2022-09-04T07:26:25.203Z,3.00
2022-09-04T07:29:37.599Z,3.27
2022-09-04T07:32:26.801Z,3.58
2022-09-04T07:35:40.646Z,3.40
2022-09-04T07:38:50.899Z,3.10
2022-09-04T07:42:03.792Z,3.12
2022-09-04T07:45:08.931Z,2.98
2022-09-04T07:48:08.292Z,3.27
2022-09-04T07:51:14.058Z,2.75
2022-09-04T07:54:09.893Z,2.30
2022-09-04T07:56:54.794Z,2.30
2022-09-04T08:00:00.561Z,2.30
2022-09-04T08:03:05.905Z,2.55
2022-09-04T08:06:17.446Z,2.05
2022-09-04T08:09:20.169Z,2.35
2022-09-04T08:12:14.901Z,1.92
2022-09-04T08:15:00.028Z,1.80
2022-09-04T08:18:06.155Z,2.10
2022-09-04T08:21:17.011Z,1.80
2022-09-04T08:24:20.700Z,1.90
2022-09-04T08:27:21.110Z,2.05
2022-09-04T08:30:12.555Z,2.08
2022-09-04T08:33:28.528Z,1.77
2022-09-04T08:36:18.833Z,2.20
2022-09-04T08:39:08.737Z,1.55
2022-09-04T08:42:12.723Z,1.50
2022-09-04T08:44:50.916Z,1.40
2022-09-04T08:47:54.079Z,1.55
2022-09-04T08:50:56.517Z,1.60
2022-09-04T08:54:05.042Z,1.77
2022-09-04T08:57:06.381Z,1.80
2022-09-04T09:00:17.502Z,1.20
2022-09-04T09:03:02.123Z,1.45
2022-09-04T09:06:12.640Z,1.60
2022-09-04T09:09:11.140Z,1.20
2022-09-04T09:11:59.028Z,1.42
2022-09-04T09:14:48.887Z,2.27
2022-09-04T09:17:35.326Z,4.08
2022-09-04T09:20:37.978Z,1.57
2022-09-04T09:23:23.650Z,1.30
2022-09-04T09:26:44.673Z,1.67
2022-09-04T09:30:02.514Z,1.47
2022-09-04T09:33:18.514Z,2.60
2022-09-04T09:36:12.473Z,1.80
2022-09-04T09:39:13.193Z,1.70
2022-09-04T09:42:25.605Z,1.47
2022-09-04T09:45:18.426Z,1.50
2022-09-04T09:48:21.039Z,1.37
2022-09-04T09:51:32.830Z,1.85
2022-09-04T09:54:55.652Z,1.65
2022-09-04T09:57:48.577Z,1.57
2022-09-04T10:00:25.464Z,2.55
2022-09-04T10:03:17.807Z,1.50
2022-09-04T10:06:17.728Z,1.45
2022-09-04T10:09:31.667Z,1.40
2022-09-04T10:12:26.273Z,1.90
2022-09-04T10:15:31.716Z,2.98
2022-09-04T10:18:38.334Z,2.22
2022-09-04T10:21:59.552Z,2.20
2022-09-04T10:25:07.922Z,1.92
2022-09-04T10:28:13.072Z,1.70
2022-09-04T10:31:21.535Z,1.20
2022-09-04T10:34:02.575Z,1.07
2022-09-04T10:37:02.013Z,1.60
2022-09-04T10:40:00.264Z,1.40
2022-09-04T10:43:03.971Z,1.67
2022-09-04T10:45:47.566Z,1.80
2022-09-04T10:49:02.142Z,1.40
2022-09-04T10:52:25.877Z,1.25
2022-09-04T10:55:30.077Z,1.45
2022-09-04T10:58:32.659Z,1.20
2022-09-04T11:01:44.952Z,1.32
2022-09-04T11:04:54.442Z,1.00
2022-09-04T11:08:05.992Z,1.30
2022-09-04T11:10:59.310Z,1.20
2022-09-04T11:14:16.777Z,1.30
2022-09-04T11:17:20.461Z,1.20
2022-09-04T11:20:10.164Z,1.30
2022-09-04T11:23:02.685Z,1.55
2022-09-04T11:26:08.896Z,1.72
2022-09-04T11:29:21.377Z,1.57
2022-09-04T11:32:13.925Z,1.12
2022-09-04T11:35:30.540Z,1.20
2022-09-04T11:38:53.771Z,1.57
2022-09-04T11:42:10.449Z,1.22
2022-09-04T11:45:03.958Z,1.20
2022-09-04T11:47:59.877Z,1.27
2022-09-04T11:51:01.857Z,1.20
2022-09-04T11:54:01.426Z,1.07
2022-09-04T11:56:42.289Z,1.20
2022-09-04T11:59:42.140Z,1.10
2022-09-04T12:02:59.256Z,1.20
2022-09-04T12:05:50.421Z,1.50
2022-09-04T12:08:45.577Z,1.22
2022-09-04T12:12:01.278Z,1.45
2022-09-04T12:14:51.530Z,1.25
2022-09-04T12:18:10.578Z,4.78
2022-09-04T12:21:03.016Z,1.20
2022-09-04T12:24:04.924Z,1.30
2022-09-04T12:27:17.110Z,1.10
2022-09-04T12:30:06.593Z,0.98
2022-09-04T12:32:50.845Z,1.00
2022-09-04T12:35:52.007Z,2.58
2022-09-04T12:38:48.636Z,1.50
2022-09-04T12:41:49.217Z,1.10
2022-09-04T12:44:45.341Z,1.22
2022-09-04T12:47:57.340Z,2.55
2022-09-04T12:50:36.290Z,1.50
2022-09-04T12:53:35.206Z,1.50
2022-09-04T12:56:33.463Z,3.08
2022-09-04T12:59:43.041Z,3.35
2022-09-04T13:02:50.948Z,2.02
2022-09-04T13:05:51.749Z,1.82
2022-09-04T13:09:02.946Z,1.50
2022-09-04T13:12:09.411Z,1.30
2022-09-04T13:15:08.805Z,1.15
2022-09-04T13:18:06.555Z,1.20
2022-09-04T13:20:53.226Z,1.30
2022-09-04T13:23:59.439Z,1.65
2022-09-04T13:27:04.960Z,1.35
2022-09-04T13:29:46.053Z,1.27
2022-09-04T13:32:52.087Z,1.60
2022-09-04T13:35:55.010Z,1.70
2022-09-04T13:38:38.683Z,1.52
2022-09-04T13:41:49.564Z,1.72
2022-09-04T13:45:06.175Z,3.75
2022-09-04T13:48:10.706Z,1.52
2022-09-04T13:50:56.169Z,1.60
2022-09-04T13:53:51.598Z,1.40
2022-09-04T13:56:32.673Z,1.65
2022-09-04T13:59:09.894Z,2.20
2022-09-04T14:01:50.267Z,1.47
2022-09-04T14:04:30.229Z,1.65
2022-09-04T14:07:07.442Z,1.50
2022-09-04T14:09:45.579Z,5.30
2022-09-04T14:12:40.515Z,5.25
2022-09-04T14:15:33.109Z,3.50
2022-09-04T14:18:48.709Z,2.65
2022-09-04T14:21:46.127Z,2.42
2022-09-04T14:24:32.522Z,1.70
2022-09-04T14:27:19.615Z,2.12
2022-09-04T14:30:22.409Z,1.65
2022-09-04T14:33:22.504Z,1.50
2022-09-04T14:39:21.500Z,1.82
2022-09-04T14:42:28.709Z,2.83
2022-09-04T14:45:30.593Z,2.85
2022-09-04T14:48:24.619Z,2.10
2022-09-04T14:51:00.685Z,1.70
2022-09-04T14:53:36.403Z,1.40
2022-09-04T14:56:18.133Z,1.60
2022-09-04T14:59:11.285Z,1.80
2022-09-04T15:02:13.463Z,1.90
2022-09-04T15:05:21.231Z,1.60
2022-09-04T15:08:00.520Z,1.62
2022-09-04T15:10:50.936Z,2.08
2022-09-04T15:13:50.456Z,1.62
2022-09-04T15:16:36.436Z,2.10
2022-09-04T15:19:51.673Z,2.52
2022-09-04T15:22:40.351Z,4.10
2022-09-04T15:25:58.249Z,2.02
2022-09-04T15:28:27.643Z,2.27
2022-09-04T15:31:31.528Z,2.27
2022-09-04T15:34:11.349Z,1.70
2022-09-04T15:36:45.085Z,5.22
2022-09-04T15:39:35.526Z,5.58
2022-09-04T15:42:32.494Z,3.87
2022-09-04T15:45:28.661Z,3.75
2022-09-04T15:48:42.606Z,5.33
2022-09-04T15:51:38.461Z,2.35
2022-09-04T15:54:43.870Z,2.30
2022-09-04T15:57:33.077Z,2.20
2022-09-04T16:00:15.318Z,2.50
2022-09-04T16:03:15.442Z,5.03
2022-09-04T16:06:00.967Z,2.45
2022-09-04T16:08:45.467Z,2.87
2022-09-04T16:12:00.768Z,3.42
2022-09-04T16:14:47.845Z,3.03
2022-09-04T16:17:27.887Z,2.47
2022-09-04T16:20:10.577Z,2.95
2022-09-04T16:22:50.858Z,2.62
2022-09-04T16:25:32.696Z,2.72
2022-09-04T16:28:29.635Z,2.75
2022-09-04T16:31:07.952Z,4.60
2022-09-04T16:33:48.559Z,4.12
2022-09-04T16:36:46.002Z,3.40
2022-09-04T16:39:45.004Z,3.52
2022-09-04T16:42:28.364Z,4.30
2022-09-04T16:45:12.251Z,3.77
2022-09-04T16:48:26.836Z,4.87
2022-09-04T16:51:09.870Z,3.40
2022-09-04T16:53:58.790Z,3.02
2022-09-04T16:56:47.669Z,2.90
2022-09-04T16:59:46.136Z,3.80
2022-09-04T17:02:52.137Z,4.60
2022-09-04T17:05:50.837Z,3.50
2022-09-04T17:08:55.350Z,2.60
2022-09-04T17:11:55.648Z,2.40
2022-09-04T17:14:46.039Z,2.60
2022-09-04T17:17:31.209Z,2.77
2022-09-04T17:20:08.190Z,3.85
2022-09-04T17:27:32.410Z,4.50
2022-09-04T17:29:09.207Z,2.98
2022-09-04T17:29:29.778Z,3.00
2022-09-04T17:31:45.321Z,3.27
2022-09-04T17:40:16.412Z,4.10
2022-09-04T17:40:48.435Z,5.80
2022-09-04T17:41:36.792Z,5.72
2022-09-04T17:44:11.577Z,5.85
2022-09-04T17:47:07.405Z,4.15
2022-09-04T17:49:50.873Z,4.15
2022-09-04T17:52:34.136Z,3.95
2022-09-04T17:55:12.723Z,3.65
2022-09-04T17:58:05.723Z,3.98
2022-09-04T18:01:15.179Z,3.05
2022-09-04T18:04:21.553Z,3.50
2022-09-04T18:06:51.640Z,4.60
2022-09-04T18:10:06.822Z,4.67
2022-09-04T18:12:51.755Z,6.40
2022-09-04T18:15:39.669Z,5.75
2022-09-04T18:18:31.774Z,5.55
2022-09-04T18:21:32.336Z,5.75
2022-09-04T18:24:24.951Z,5.80
2022-09-04T18:27:12.764Z,6.35
2022-09-04T18:33:05.374Z,6.78
2022-09-04T18:37:07.962Z,6.12
2022-09-04T18:37:15.979Z,7.40
2022-09-04T18:38:20.959Z,8.03
2022-09-04T18:50:21.469Z,7.37
2022-09-04T18:50:34.161Z,7.50
2022-09-04T18:50:51.228Z,6.80
2022-09-04T18:51:55.822Z,7.10
2022-09-04T18:54:43.264Z,8.35
2022-09-04T18:57:32.626Z,8.60
2022-09-04T19:00:12.021Z,8.18
2022-09-04T19:02:59.371Z,6.92
2022-09-04T19:05:44.911Z,7.62
2022-09-04T19:08:13.442Z,7.53
2022-09-04T19:10:56.903Z,9.40
2022-09-04T19:13:40.713Z,8.60
2022-09-04T19:16:53.125Z,8.95
2022-09-04T19:20:06.657Z,9.48
2022-09-04T19:22:50.129Z,8.05
2022-09-04T19:25:35.404Z,8.55
2022-09-04T19:28:16.631Z,8.63
2022-09-04T19:30:54.263Z,7.30
2022-09-04T19:33:32.866Z,8.10
2022-09-04T19:36:32.273Z,8.88
2022-09-04T19:45:59.169Z,8.70
2022-09-04T19:46:03.257Z,8.78
2022-09-04T19:46:08.156Z,8.03
2022-09-04T19:48:16.724Z,8.05
2022-09-04T19:53:17.967Z,7.62
2022-09-04T19:57:31.150Z,7.87
2022-09-04T19:59:45.827Z,7.80
2022-09-04T20:02:35.532Z,7.70
2022-09-04T20:05:17.593Z,6.97
2022-09-04T20:08:20.224Z,7.83
2022-09-04T20:11:04.151Z,8.28
2022-09-04T20:13:50.217Z,8.25
2022-09-04T20:16:39.150Z,7.78
2022-09-04T20:19:30.329Z,8.60
2022-09-04T20:22:28.447Z,8.25
2022-09-04T20:25:25.311Z,7.67
2022-09-04T20:28:21.114Z,7.35
2022-09-04T20:31:36.272Z,7.03
2022-09-04T20:34:42.512Z,7.12
2022-09-04T20:37:44.786Z,7.78
2022-09-04T20:40:41.975Z,6.87
2022-09-04T20:43:32.206Z,7.87
2022-09-04T20:48:07.710Z,7.37
2022-09-04T20:52:55.450Z,6.58
2022-09-04T20:53:06.289Z,6.75
2022-09-04T20:54:58.789Z,6.35
2022-09-04T21:03:11.196Z,5.97
2022-09-04T21:03:23.990Z,6.00
2022-09-04T21:06:15.101Z,5.72
2022-09-04T21:09:22.325Z,5.85
2022-09-04T21:12:15.914Z,5.85
2022-09-04T21:14:55.296Z,5.78
2022-09-04T21:18:06.930Z,5.40
2022-09-04T21:21:00.897Z,6.28
2022-09-04T21:23:53.057Z,6.00
2022-09-04T21:26:49.885Z,6.60
2022-09-04T21:29:33.442Z,7.03
2022-09-04T21:32:35.998Z,6.62
2022-09-04T21:35:22.007Z,6.55
2022-09-04T21:38:55.407Z,7.33
2022-09-04T21:42:19.318Z,5.80
2022-09-04T21:45:25.743Z,5.67
2022-09-04T21:48:23.556Z,5.92
2022-09-04T21:51:17.053Z,6.30
2022-09-04T21:53:53.655Z,5.80
2022-09-04T22:02:25.956Z,6.40
2022-09-04T22:02:40.285Z,6.10
2022-09-04T22:03:08.988Z,5.67
2022-09-04T22:06:19.035Z,6.20
2022-09-04T22:13:30.138Z,6.67
2022-09-04T22:13:38.393Z,6.28
2022-09-04T22:14:59.418Z,6.53
2022-09-04T22:18:07.804Z,6.20
2022-09-04T22:20:54.053Z,6.53
2022-09-04T22:24:14.785Z,6.30
2022-09-04T22:27:04.923Z,6.80
2022-09-04T22:30:06.521Z,6.35
2022-09-04T22:33:23.080Z,6.53
2022-09-04T22:36:38.316Z,6.03
2022-09-04T22:39:54.766Z,6.58
2022-09-04T22:42:58.302Z,6.08
2022-09-04T22:45:54.973Z,5.60
2022-09-04T22:49:12.999Z,6.05
2022-09-04T22:52:03.024Z,6.08
2022-09-04T22:55:17.846Z,6.28
2022-09-04T22:58:03.495Z,5.85
2022-09-04T23:03:42.149Z,5.53
2022-09-04T23:12:06.450Z,5.97
2022-09-04T23:13:43.008Z,5.15
2022-09-04T23:13:47.941Z,4.87
2022-09-04T23:16:28.591Z,5.20
2022-09-04T23:24:21.234Z,5.55
2022-09-04T23:26:38.330Z,4.72
2022-09-04T23:26:43.576Z,5.35
2022-09-04T23:27:52.236Z,5.90
2022-09-04T23:30:27.932Z,5.72
2022-09-04T23:33:33.149Z,5.28
2022-09-04T23:36:21.363Z,5.15
2022-09-04T23:39:28.985Z,5.12
2022-09-04T23:42:36.713Z,5.12
2022-09-04T23:46:01.539Z,5.15
2022-09-04T23:48:46.471Z,4.87
2022-09-04T23:51:39.790Z,5.10
2022-09-04T23:54:41.380Z,4.90
2022-09-04T23:57:51.675Z,4.95
